Time;durP1;ratioP1;P1;durP2;ratioP2;P2;SDS_P1;SDS_P2;PMS_P1;PMS_P2;Temp;Humidity;BMP_temperature;BMP_pressure;BME280_temperature;BME280_humidity;BME280_pressure;Samples;Min_cycle;Max_cycle;Signal;HPM_P1;HPM_P2
2022/05/18 00:00:13;;;;;;;1.23;1.23;;;;;;;17.59;81.09;95947.06;4389979;32;20180;-64
2022/05/18 00:02:39;;;;;;;1.30;1.30;;;;;;;17.67;81.08;95943.56;4387967;32;20189;-63
2022/05/18 00:05:05;;;;;;;1.43;1.30;;;;;;;17.77;80.59;95943.22;4375408;32;20220;-63
2022/05/18 00:07:30;;;;;;;3.13;1.73;;;;;;;17.74;80.81;95941.19;4372119;32;20199;-63
2022/05/18 00:09:56;;;;;;;2.13;2.03;;;;;;;17.75;80.63;95942.75;4391850;32;20195;-63
2022/05/18 00:12:22;;;;;;;1.57;1.53;;;;;;;17.70;81.20;95944.81;4373335;32;20212;-63
2022/05/18 00:14:47;;;;;;;1.17;1.17;;;;;;;17.46;81.12;95950.72;4387020;32;20203;-63
2022/05/18 00:17:12;;;;;;;1.13;1.13;;;;;;;17.60;81.93;95951.31;4374634;32;20191;-63
2022/05/18 00:19:37;;;;;;;1.33;1.33;;;;;;;17.39;82.08;95950.47;4384239;32;20189;-63
2022/05/18 00:22:03;;;;;;;2.37;1.70;;;;;;;17.55;81.90;95951.50;4385384;32;20187;-63
2022/05/18 00:24:29;;;;;;;1.27;1.27;;;;;;;17.66;81.73;95949.28;4386985;32;20173;-65
2022/05/18 00:26:54;;;;;;;1.90;1.80;;;;;;;17.40;82.48;95950.16;4369862;32;20199;-64
2022/05/18 00:29:20;;;;;;;1.80;1.80;;;;;;;17.31;83.15;95948.59;4390401;32;20245;-64
2022/05/18 00:31:48;;;;;;;1.83;1.73;;;;;;;17.40;83.02;95947.47;4376475;32;20202;-63
2022/05/18 00:34:16;;;;;;;1.40;1.30;;;;;;;17.47;82.44;95952.31;4376540;32;20238;-64
2022/05/18 00:36:41;;;;;;;1.20;1.20;;;;;;;17.45;82.06;95951.88;4384979;32;20185;-64
2022/05/18 00:39:07;;;;;;;1.50;1.40;;;;;;;17.47;82.41;95950.41;4390677;32;20248;-64
2022/05/18 00:41:33;;;;;;;1.27;1.27;;;;;;;17.46;82.70;95953.41;4370322;32;20267;-63
2022/05/18 00:43:58;;;;;;;2.07;1.97;;;;;;;17.43;83.06;95959.44;4378027;32;20195;-63
2022/05/18 00:46:25;;;;;;;1.67;1.67;;;;;;;17.30;83.51;95960.41;4383802;32;20212;-63
2022/05/18 00:48:52;;;;;;;2.23;1.80;;;;;;;17.10;83.78;95960.00;4388345;32;20180;-63
2022/05/18 00:51:24;;;;;;;1.30;1.30;;;;;;;17.18;83.43;95958.41;4389149;32;20230;-64
2022/05/18 00:54:10;;;;;;;1.20;1.10;;;;;;;17.36;82.99;95956.47;4373800;32;20181;-63
2022/05/18 00:56:45;;;;;;;1.07;1.07;;;;;;;17.37;83.22;95958.81;4387610;32;20196;-63
2022/05/18 00:59:20;;;;;;;1.27;1.27;;;;;;;17.32;82.74;95959.00;4378743;32;20180;-63
2022/05/18 01:01:46;;;;;;;3.40;1.40;;;;;;;17.13;82.78;95964.72;4387863;32;20202;-63
2022/05/18 01:04:13;;;;;;;1.60;1.50;;;;;;;17.09;83.05;95961.09;4389594;32;20201;-63
2022/05/18 01:06:45;;;;;;;1.60;1.57;;;;;;;17.08;82.99;95964.09;4393118;32;20199;-63
2022/05/18 01:09:18;;;;;;;1.93;1.83;;;;;;;16.89;83.67;95951.03;4391762;32;20184;-63
2022/05/18 01:11:44;;;;;;;1.13;1.13;;;;;;;17.01;83.58;95967.28;4392676;32;20207;-63
2022/05/18 01:14:32;;;;;;;1.03;1.03;;;;;;;16.94;83.33;95963.50;4385551;32;20188;-64
2022/05/18 01:16:58;;;;;;;1.33;1.07;;;;;;;16.82;83.39;95964.16;4379294;32;20188;-63
2022/05/18 01:19:37;;;;;;;1.90;1.67;;;;;;;16.87;83.02;95955.13;4385822;32;20241;-63
2022/05/18 01:22:40;;;;;;;1.10;1.10;;;;;;;16.99;82.77;95963.34;4362346;32;20261;-64
2022/05/18 01:25:26;;;;;;;5.30;2.37;;;;;;;16.90;82.82;95952.63;4380551;32;20219;-63
2022/05/18 01:27:52;;;;;;;6.43;1.90;;;;;;;16.70;83.56;95955.94;4392360;32;20192;-62
2022/05/18 01:30:18;;;;;;;1.60;1.60;;;;;;;16.75;83.59;95961.16;4378539;32;20184;-63
2022/05/18 01:32:46;;;;;;;1.17;1.17;;;;;;;16.69;83.24;95962.41;4378747;32;20180;-63
2022/05/18 01:35:17;;;;;;;1.23;1.23;;;;;;;16.77;82.29;95961.63;4378859;32;20172;-64
2022/05/18 01:37:42;;;;;;;1.13;1.13;;;;;;;16.43;83.45;95960.47;4386251;32;20258;-63
2022/05/18 01:40:16;;;;;;;1.40;1.30;;;;;;;16.69;83.65;95965.09;4375558;32;20189;-63
2022/05/18 01:42:47;;;;;;;1.33;1.33;;;;;;;16.76;83.16;95968.87;4383459;32;20189;-63
2022/05/18 01:45:14;;;;;;;1.60;1.60;;;;;;;16.68;82.42;95964.28;4377938;32;20191;-63
2022/05/18 01:47:40;;;;;;;1.33;1.23;;;;;;;16.80;82.27;95969.03;4392518;32;20192;-63
2022/05/18 01:50:10;;;;;;;1.73;1.73;;;;;;;16.61;82.14;95963.19;4378411;32;20200;-63
2022/05/18 01:52:36;;;;;;;1.33;1.33;;;;;;;16.81;82.81;95975.97;4373973;32;20303;-63
2022/05/18 01:55:03;;;;;;;3.50;2.07;;;;;;;16.52;83.33;95973.09;4385503;32;20236;-63
2022/05/18 01:57:28;;;;;;;0.70;0.70;;;;;;;16.73;82.85;95966.81;4386386;32;20188;-64
2022/05/18 01:59:53;;;;;;;1.50;1.50;;;;;;;16.58;82.75;95971.84;4386887;32;20194;-62
2022/05/18 02:02:19;;;;;;;1.10;1.10;;;;;;;16.65;82.79;95972.19;4390092;32;21363;-63
2022/05/18 02:04:44;;;;;;;1.27;1.27;;;;;;;16.65;83.16;95972.97;4375064;32;20242;-63
2022/05/18 02:07:11;;;;;;;1.90;1.80;;;;;;;16.61;82.47;95972.00;4376298;32;20228;-63
2022/05/18 02:09:37;;;;;;;3.40;1.87;;;;;;;16.56;82.30;95971.38;4374091;32;20177;-63
2022/05/18 02:12:05;;;;;;;1.03;1.03;;;;;;;16.58;81.94;95980.69;4378691;32;20191;-63
2022/05/18 02:14:30;;;;;;;1.93;1.87;;;;;;;16.56;83.03;95974.06;4391943;32;20177;-64
2022/05/18 02:16:56;;;;;;;1.30;1.30;;;;;;;16.63;83.06;95983.19;4388431;32;20295;-62
2022/05/18 02:19:21;;;;;;;2.20;2.10;;;;;;;16.37;84.05;95974.34;4371985;32;20184;-63
2022/05/18 02:21:47;;;;;;;1.77;1.67;;;;;;;16.55;83.39;95983.19;4391297;32;20234;-63
2022/05/18 02:24:12;;;;;;;1.97;1.73;;;;;;;16.40;83.21;95982.56;4391943;32;20200;-62
2022/05/18 02:26:38;;;;;;;1.30;1.20;;;;;;;16.40;83.10;95992.47;4390944;32;20271;-63
2022/05/18 02:29:04;;;;;;;1.43;1.43;;;;;;;16.61;84.03;95987.28;4376368;32;20188;-64
2022/05/18 02:31:30;;;;;;;2.83;2.60;;;;;;;16.52;84.29;95991.84;4391409;32;20203;-64
2022/05/18 02:33:55;;;;;;;1.37;1.37;;;;;;;16.49;84.61;95986.00;4378592;32;20188;-63
2022/05/18 02:36:20;;;;;;;1.77;1.67;;;;;;;16.54;84.24;95982.41;4376872;32;20196;-63
2022/05/18 02:38:45;;;;;;;1.77;1.67;;;;;;;16.58;84.77;95979.88;4390184;32;20218;-63
2022/05/18 02:41:11;;;;;;;1.20;1.20;;;;;;;16.44;85.20;95993.41;4376171;32;20211;-63
2022/05/18 02:43:40;;;;;;;2.07;1.87;;;;;;;16.19;85.19;95997.66;4386502;32;20191;-63
2022/05/18 02:46:13;;;;;;;2.03;1.93;;;;;;;16.49;84.78;95991.37;4390756;32;20212;-63
2022/05/18 02:48:39;;;;;;;1.23;1.23;;;;;;;16.43;84.83;95997.97;4369356;32;20188;-63
2022/05/18 02:51:09;;;;;;;1.70;1.60;;;;;;;16.22;85.79;96002.34;4376827;32;20254;-63
2022/05/18 02:53:34;;;;;;;1.40;1.40;;;;;;;16.27;85.51;95998.75;4375676;32;20177;-63
2022/05/18 02:56:06;;;;;;;1.63;1.53;;;;;;;16.27;85.36;95999.53;4391859;32;20176;-64
2022/05/18 02:58:44;;;;;;;1.83;1.73;;;;;;;16.22;85.44;96001.56;4385792;32;20190;-64
2022/05/18 03:01:11;;;;;;;1.47;1.43;;;;;;;16.37;85.37;95999.25;4391981;32;20184;-63
2022/05/18 03:03:37;;;;;;;1.40;1.40;;;;;;;16.24;85.06;95994.00;4381736;32;20199;-63
2022/05/18 03:06:09;;;;;;;1.90;1.87;;;;;;;16.20;84.99;95999.22;4375422;32;20264;-64
2022/05/18 03:08:36;;;;;;;0.60;0.60;;;;;;;16.21;86.03;96003.44;4380599;32;20192;-63
2022/05/18 03:11:02;;;;;;;1.30;1.20;;;;;;;16.43;84.66;96000.66;4374084;32;20184;-64
2022/05/18 03:13:28;;;;;;;1.23;1.23;;;;;;;16.28;85.46;96006.47;4392691;32;20181;-64
2022/05/18 03:15:53;;;;;;;1.50;1.50;;;;;;;16.17;85.41;96009.75;4377296;32;20188;-63
2022/05/18 03:18:18;;;;;;;1.37;1.37;;;;;;;16.09;86.57;96019.34;4377151;32;20195;-64
2022/05/18 03:23:34;;;;;;;1.60;1.60;;;;;;;16.27;85.13;96020.94;4387967;32;20244;-63
2022/05/18 03:26:01;;;;;;;1.50;1.40;;;;;;;16.44;84.10;96012.16;4373930;32;20189;-64
2022/05/18 03:28:27;;;;;;;1.63;1.53;;;;;;;16.43;85.26;96030.13;4377393;32;20203;-64
2022/05/18 03:30:52;;;;;;;0.77;0.77;;;;;;;16.32;85.02;96026.16;4391142;32;20185;-64
2022/05/18 03:33:17;;;;;;;0.50;0.50;;;;;;;16.30;85.50;96031.03;4374551;32;20300;-64
2022/05/18 03:35:42;;;;;;;1.30;1.20;;;;;;;16.41;85.09;96036.91;4377027;32;20208;-63
2022/05/18 03:38:08;;;;;;;1.27;1.27;;;;;;;16.24;85.13;96032.28;4390556;32;20259;-63
2022/05/18 03:40:38;;;;;;;1.27;1.27;;;;;;;16.29;84.08;96029.47;4390623;32;20231;-63
2022/05/18 03:43:05;;;;;;;1.27;1.27;;;;;;;16.09;84.60;96035.41;4369651;32;20199;-63
2022/05/18 03:45:33;;;;;;;3.90;1.43;;;;;;;16.02;84.72;96035.84;4378741;32;20168;-63
2022/05/18 03:47:59;;;;;;;1.63;1.53;;;;;;;16.29;84.00;96040.19;4388072;32;20185;-63
2022/05/18 03:50:24;;;;;;;1.90;1.80;;;;;;;16.09;83.89;96041.53;4384964;32;20184;-63
2022/05/18 03:52:49;;;;;;;1.50;1.50;;;;;;;15.95;83.40;96034.72;4376587;32;22259;-63
2022/05/18 03:55:14;;;;;;;1.77;1.70;;;;;;;15.64;83.08;96046.22;4390726;32;20215;-63
2022/05/18 03:57:40;;;;;;;1.77;1.63;;;;;;;15.64;85.37;96046.22;4371093;32;20188;-63
2022/05/18 04:00:06;;;;;;;1.20;1.20;;;;;;;15.87;85.29;96041.62;4376723;32;20185;-63
2022/05/18 04:02:33;;;;;;;1.50;1.40;;;;;;;15.64;85.42;96046.22;4391105;32;20259;-64
2022/05/18 04:04:59;;;;;;;1.07;1.07;;;;;;;15.73;85.36;96047.06;4377080;32;20180;-63
2022/05/18 04:07:24;;;;;;;1.70;1.70;;;;;;;15.72;85.65;96045.50;4390350;32;20176;-63
2022/05/18 04:09:49;;;;;;;1.10;1.10;;;;;;;15.84;84.51;96049.47;4389512;32;20169;-63
2022/05/18 04:12:14;;;;;;;1.73;1.63;;;;;;;15.76;84.66;96057.16;4374868;32;20212;-63
2022/05/18 04:14:40;;;;;;;1.00;1.00;;;;;;;15.77;84.44;96056.06;4386436;32;20250;-64
2022/05/18 04:17:06;;;;;;;4.10;1.47;;;;;;;15.95;84.92;96061.50;4390300;32;20273;-63
2022/05/18 04:19:31;;;;;;;1.60;1.50;;;;;;;15.67;83.60;96059.00;4371289;32;20197;-63
2022/05/18 04:21:57;;;;;;;1.53;1.43;;;;;;;15.74;84.76;96062.03;4392448;32;20239;-63
2022/05/18 04:24:22;;;;;;;1.53;1.53;;;;;;;15.81;85.42;96064.25;4387523;32;20180;-63
2022/05/18 04:26:47;;;;;;;1.67;1.57;;;;;;;15.68;84.17;96055.22;4390657;32;20169;-63
2022/05/18 04:29:13;;;;;;;1.57;1.57;;;;;;;15.74;84.56;96067.37;4376360;32;20181;-63
2022/05/18 04:31:38;;;;;;;1.47;1.40;;;;;;;15.67;85.23;96063.56;4366338;32;20272;-62
2022/05/18 04:34:04;;;;;;;0.80;0.80;;;;;;;15.63;85.06;96059.91;4390426;32;20195;-64
2022/05/18 04:36:29;;;;;;;1.87;1.77;;;;;;;15.89;85.04;96074.22;4381798;32;20191;-64
2022/05/18 04:38:55;;;;;;;1.20;1.20;;;;;;;15.78;84.01;96073.69;4383013;32;20180;-63
2022/05/18 04:41:20;;;;;;;2.60;2.50;;;;;;;15.83;83.58;96075.44;4361022;32;20276;-63
2022/05/18 04:43:45;;;;;;;3.67;1.77;;;;;;;15.84;82.78;96078.91;4373481;32;20193;-64
2022/05/18 04:46:10;;;;;;;1.70;1.60;;;;;;;15.80;84.59;96084.06;4375029;32;20187;-63
2022/05/18 04:48:36;;;;;;;1.70;1.27;;;;;;;15.93;85.03;96082.41;4388091;32;20192;-63
2022/05/18 04:51:05;;;;;;;1.63;1.63;;;;;;;16.05;84.53;96079.94;4390210;32;20177;-63
2022/05/18 04:53:33;;;;;;;3.07;1.77;;;;;;;16.06;83.90;96094.91;4387038;32;20203;-63
2022/05/18 04:55:59;;;;;;;1.93;1.70;;;;;;;16.06;83.81;96087.66;4372789;32;20193;-63
2022/05/18 04:58:24;;;;;;;1.37;1.27;;;;;;;16.19;83.07;96094.03;4371636;32;20199;-63
2022/05/18 05:00:57;;;;;;;1.40;1.40;;;;;;;16.19;83.12;96099.37;4386715;32;20223;-63
2022/05/18 05:03:23;;;;;;;1.50;1.50;;;;;;;16.25;83.03;96106.16;4368269;32;20177;-63
2022/05/18 05:05:48;;;;;;;1.67;1.57;;;;;;;16.32;83.16;96106.50;4387058;32;20188;-63
2022/05/18 05:08:13;;;;;;;1.87;1.77;;;;;;;16.32;82.46;96101.16;4386999;32;20203;-63
2022/05/18 05:10:39;;;;;;;3.50;2.40;;;;;;;16.31;82.73;96107.59;4389122;32;20255;-63
2022/05/18 05:13:04;;;;;;;2.57;1.30;;;;;;;16.30;81.34;96107.91;4373334;32;20196;-63
2022/05/18 05:15:30;;;;;;;2.03;1.93;;;;;;;16.35;83.03;96113.13;4378106;32;20177;-63
2022/05/18 05:17:56;;;;;;;1.63;1.60;;;;;;;16.18;81.07;96113.87;4388507;32;20194;-64
2022/05/18 05:20:21;;;;;;;4.03;2.00;;;;;;;16.39;82.83;96122.94;4382508;32;20243;-63
2022/05/18 05:22:46;;;;;;;1.60;1.60;;;;;;;16.47;82.22;96127.50;4386677;32;20226;-63
2022/05/18 05:25:14;;;;;;;1.30;1.20;;;;;;;16.47;80.62;96122.13;4386011;32;20199;-63
2022/05/18 05:27:39;;;;;;;1.63;1.53;;;;;;;16.37;82.26;96133.16;4376529;32;20189;-63
2022/05/18 05:30:06;;;;;;;2.47;2.27;;;;;;;16.18;81.42;96132.59;4370606;32;20211;-64
2022/05/18 05:32:32;;;;;;;4.70;2.77;;;;;;;16.23;82.21;96129.78;4390601;32;20210;-64
2022/05/18 05:34:58;;;;;;;3.07;2.80;;;;;;;16.36;80.83;96131.56;4382737;32;20181;-64
2022/05/18 05:37:23;;;;;;;1.13;1.13;;;;;;;16.52;81.69;96131.13;4372342;32;20199;-64
2022/05/18 05:39:49;;;;;;;2.40;2.00;;;;;;;16.60;82.17;96127.72;4375521;32;20201;-63
2022/05/18 05:42:14;;;;;;;2.70;2.50;;;;;;;16.63;80.55;96135.09;4392465;32;20240;-63
2022/05/18 05:44:40;;;;;;;2.03;1.93;;;;;;;16.66;82.25;96127.25;4378477;32;20173;-64
2022/05/18 05:47:05;;;;;;;3.83;1.63;;;;;;;16.74;81.50;96131.06;4377466;32;20226;-64
2022/05/18 05:49:31;;;;;;;2.33;2.03;;;;;;;16.74;81.43;96133.75;4377480;32;20193;-63
2022/05/18 05:51:56;;;;;;;1.83;1.73;;;;;;;16.87;81.26;96135.50;4378801;32;20218;-64
2022/05/18 05:54:22;;;;;;;1.50;1.50;;;;;;;16.91;81.04;96130.31;4392058;32;20255;-64
2022/05/18 05:56:47;;;;;;;2.90;2.70;;;;;;;16.93;82.21;96130.78;4378401;32;20219;-63
2022/05/18 05:59:13;;;;;;;1.60;1.50;;;;;;;17.05;78.92;96136.31;4384440;32;20185;-64
2022/05/18 06:01:39;;;;;;;2.50;2.40;;;;;;;17.23;80.54;96137.94;4350605;32;20177;-63
2022/05/18 06:04:07;;;;;;;1.40;1.40;;;;;;;17.27;76.83;96138.84;4376848;32;20272;-64
2022/05/18 06:06:35;;;;;;;2.47;2.37;;;;;;;17.32;77.73;96140.59;4388442;32;20271;-64
2022/05/18 06:09:01;;;;;;;7.13;3.57;;;;;;;17.34;77.52;96149.12;4374299;32;20177;-64
2022/05/18 06:11:27;;;;;;;4.60;2.10;;;;;;;17.37;77.62;96143.13;4377194;32;20279;-64
2022/05/18 06:13:53;;;;;;;7.97;1.70;;;;;;;17.35;75.60;96154.16;4378342;32;20185;-64
2022/05/18 06:16:18;;;;;;;1.30;1.30;;;;;;;17.41;78.32;96146.75;4390738;32;20195;-65
2022/05/18 06:18:43;;;;;;;1.73;1.63;;;;;;;17.54;78.25;96145.78;4374588;32;20205;-64
2022/05/18 06:21:09;;;;;;;2.20;1.93;;;;;;;17.67;80.10;96152.91;4390786;32;20214;-65
2022/05/18 06:23:34;;;;;;;2.23;2.13;;;;;;;17.76;79.06;96150.22;4391557;32;20191;-64
2022/05/18 06:26:02;;;;;;;0.90;0.90;;;;;;;17.86;78.45;96149.91;4378936;32;20177;-64
2022/05/18 06:28:28;;;;;;;4.17;2.50;;;;;;;17.97;76.36;96147.66;4391009;32;20161;-64
2022/05/18 06:30:53;;;;;;;2.20;2.07;;;;;;;18.18;77.34;96145.84;4389177;32;20204;-65
2022/05/18 06:33:18;;;;;;;1.57;1.57;;;;;;;18.26;76.55;96153.09;4389480;32;20179;-64
2022/05/18 06:35:45;;;;;;;1.40;1.40;;;;;;;18.28;74.91;96150.91;4378625;32;20212;-64
2022/05/18 06:38:15;;;;;;;2.20;1.50;;;;;;;18.20;73.98;96149.00;4377480;32;20254;-63
2022/05/18 06:43:24;;;;;;;3.50;2.33;;;;;;;18.63;75.66;96156.12;4387052;32;20218;-64
2022/05/18 06:45:50;;;;;;;1.43;1.30;;;;;;;18.56;74.93;96156.59;4377678;32;20260;-63
2022/05/18 06:48:15;;;;;;;1.27;1.27;;;;;;;18.55;72.64;96155.81;4375098;32;20302;-64
2022/05/18 06:50:40;;;;;;;15.23;2.90;;;;;;;18.76;74.06;96157.81;4375483;32;20207;-65
2022/05/18 06:53:06;;;;;;;0.87;0.87;;;;;;;18.72;71.37;96164.94;4389198;32;20238;-65
2022/05/18 06:55:31;;;;;;;1.20;1.20;;;;;;;18.75;70.02;96158.91;4391902;32;20196;-65
2022/05/18 06:57:56;;;;;;;0.73;0.73;;;;;;;18.85;72.18;96161.25;4373097;32;20184;-65
2022/05/18 07:00:22;;;;;;;0.83;0.83;;;;;;;18.80;71.23;96164.12;4375652;32;20243;-65
2022/05/18 07:02:47;;;;;;;0.93;0.93;;;;;;;18.90;71.10;96160.28;4370329;32;20275;-63
2022/05/18 07:05:12;;;;;;;0.93;0.93;;;;;;;19.07;70.79;96163.66;4374896;32;20184;-68
2022/05/18 07:07:37;;;;;;;0.70;0.70;;;;;;;19.06;70.11;96158.59;4376381;32;20222;-66
2022/05/18 07:10:04;;;;;;;1.30;1.20;;;;;;;19.17;69.83;96165.94;4390956;32;20184;-70
2022/05/18 07:12:29;;;;;;;1.33;1.23;;;;;;;19.18;71.29;96162.13;4375671;32;20227;-68
2022/05/18 07:14:55;;;;;;;1.27;1.23;;;;;;;19.14;69.27;96157.72;4381303;32;20176;-66
2022/05/18 07:17:21;;;;;;;0.83;0.83;;;;;;;19.06;69.96;96159.37;4377007;32;20180;-64
2022/05/18 07:19:46;;;;;;;1.03;1.03;;;;;;;19.11;70.44;96158.41;4376825;32;20203;-66
2022/05/18 07:22:12;;;;;;;0.87;0.67;;;;;;;19.08;70.21;96150.97;4390990;32;20181;-64
2022/05/18 07:24:37;;;;;;;1.53;1.50;;;;;;;19.07;70.92;96160.97;4376799;32;20183;-67
2022/05/18 07:27:03;;;;;;;1.60;1.50;;;;;;;19.13;70.14;96154.25;4376195;32;20221;-64
2022/05/18 07:29:28;;;;;;;2.77;1.30;;;;;;;19.15;69.86;96156.62;4386069;32;20207;-70
2022/05/18 07:32:09;;;;;;;1.27;1.23;;;;;;;19.28;69.92;96158.28;4374231;32;20173;-67
2022/05/18 07:34:38;;;;;;;0.93;0.93;;;;;;;19.39;70.24;96156.75;4384445;32;20176;-66
2022/05/18 07:37:05;;;;;;;1.03;1.03;;;;;;;19.46;69.94;96148.94;4376483;32;20180;-67
2022/05/18 07:39:31;;;;;;;1.10;1.10;;;;;;;19.44;68.50;96148.50;4390006;32;20191;-66
2022/05/18 07:41:58;;;;;;;1.23;1.20;;;;;;;19.57;70.05;96157.44;4359131;32;20178;-62
2022/05/18 07:44:24;;;;;;;1.13;1.13;;;;;;;19.60;68.59;96156.78;4381132;32;20168;-63
2022/05/18 07:46:50;;;;;;;0.87;0.87;;;;;;;19.74;68.89;96157.28;4372221;32;20185;-69
2022/05/18 07:49:15;;;;;;;1.00;1.00;;;;;;;19.86;68.60;96148.47;4389845;32;20276;-67
2022/05/18 07:51:41;;;;;;;0.63;0.63;;;;;;;19.97;66.90;96148.81;4386628;32;20177;-66
2022/05/18 07:54:06;;;;;;;0.90;0.90;;;;;;;20.09;66.09;96155.03;4376975;32;20194;-62
2022/05/18 07:56:34;;;;;;;1.00;1.00;;;;;;;20.13;65.18;96155.16;4392262;32;20177;-65
2022/05/18 07:59:00;;;;;;;1.70;1.60;;;;;;;20.17;66.83;96150.66;4389332;32;20184;-67
2022/05/18 08:01:25;;;;;;;1.70;1.53;;;;;;;20.29;65.21;96156.09;4375401;32;20195;-66
2022/05/18 08:03:51;;;;;;;0.77;0.77;;;;;;;20.41;64.47;96148.03;4376884;32;20194;-66
2022/05/18 08:06:16;;;;;;;2.00;0.90;;;;;;;20.41;63.62;96149.94;4374377;32;20224;-65
2022/05/18 08:08:41;;;;;;;1.80;1.70;;;;;;;20.47;65.04;96159.37;4382716;32;20230;-70
2022/05/18 08:16:47;;;;;;;0.57;0.57;;;;;;;20.86;68.08;96164.12;4390740;32;20186;-52
2022/05/18 08:19:14;;;;;;;0.60;0.60;;;;;;;20.76;62.04;96158.41;4390389;32;20192;-49
2022/05/18 08:21:40;;;;;;;0.87;0.87;;;;;;;20.74;61.28;96168.75;4396720;32;20180;-47
2022/05/18 08:24:06;;;;;;;0.37;0.37;;;;;;;20.97;66.21;96164.47;4392523;32;20258;-49
2022/05/18 08:26:32;;;;;;;0.73;0.73;;;;;;;20.99;62.97;96164.88;4390157;32;20230;-51
2022/05/18 08:28:58;;;;;;;0.93;0.93;;;;;;;20.95;61.77;96165.91;4390157;32;20184;-51
2022/05/18 08:31:24;;;;;;;0.60;0.60;;;;;;;21.09;64.80;96167.13;4376169;32;20233;-53
2022/05/18 08:33:49;;;;;;;0.90;0.90;;;;;;;21.20;60.96;96172.88;4364068;32;20177;-51
2022/05/18 08:36:17;;;;;;;1.43;1.43;;;;;;;21.14;60.35;96171.53;4389453;32;20191;-51
2022/05/18 08:38:43;;;;;;;0.67;0.67;;;;;;;21.36;61.37;96171.06;4375929;32;20243;-53
2022/05/18 08:41:11;;;;;;;0.83;0.83;;;;;;;21.29;63.92;96167.34;4390110;32;20230;-52
2022/05/18 08:43:41;;;;;;;1.30;1.20;;;;;;;21.19;60.79;96166.69;4389840;32;20216;-51
2022/05/18 08:46:15;;;;;;;0.60;0.60;;;;;;;21.14;61.15;96164.22;4374613;32;20243;-50
2022/05/18 08:49:03;;;;;;;0.63;0.63;;;;;;;21.31;63.33;96167.81;4374881;32;20180;-51
2022/05/18 08:52:06;;;;;;;0.60;0.60;;;;;;;21.37;63.70;96156.44;4401585;32;20244;-53
2022/05/18 08:54:47;;;;;;;0.63;0.63;;;;;;;21.44;63.10;96155.84;4375781;32;20180;-53
2022/05/18 08:57:23;;;;;;;1.10;1.10;;;;;;;21.43;62.83;96156.97;4386438;32;20218;-52
2022/05/18 08:59:55;;;;;;;0.63;0.63;;;;;;;21.38;58.64;96157.22;4389661;32;20267;-53
2022/05/18 09:02:25;;;;;;;0.87;0.87;;;;;;;21.48;62.57;96162.91;4384597;32;20200;-49
2022/05/18 09:05:21;;;;;;;0.70;0.70;;;;;;;21.34;61.10;96157.13;4399179;32;20247;-47
2022/05/18 09:08:00;;;;;;;0.97;0.97;;;;;;;21.35;61.02;96160.59;4366885;32;20220;-49
2022/05/18 09:10:31;;;;;;;0.50;0.50;;;;;;;21.39;59.08;96158.78;4390574;32;20228;-49
2022/05/18 09:12:57;;;;;;;0.67;0.67;;;;;;;21.38;59.05;96157.22;4391699;32;20195;-52
2022/05/18 09:15:35;;;;;;;0.40;0.40;;;;;;;21.35;60.76;96156.00;4378866;32;20188;-48
2022/05/18 09:18:09;;;;;;;0.50;0.50;;;;;;;21.40;62.46;96146.88;4393198;32;20188;-50
2022/05/18 09:20:47;;;;;;;0.73;0.73;;;;;;;21.32;62.18;96153.97;4404411;32;20202;-50
2022/05/18 09:23:30;;;;;;;0.63;0.63;;;;;;;21.60;57.00;96159.41;4386840;32;20199;-51
2022/05/18 09:26:28;;;;;;;0.73;0.73;;;;;;;21.54;58.26;96155.38;4386741;32;20185;-50
2022/05/18 09:29:18;;;;;;;0.70;0.70;;;;;;;21.53;60.04;96148.38;4386833;32;20260;-50
2022/05/18 09:32:11;;;;;;;0.20;0.20;;;;;;;21.42;59.75;96147.28;4385854;32;20199;-53
2022/05/18 09:34:59;;;;;;;0.60;0.60;;;;;;;21.43;56.42;96148.84;4393137;32;20224;-49
2022/05/18 09:37:36;;;;;;;15.10;0.97;;;;;;;21.43;58.25;96148.84;4377418;32;20172;-52
2022/05/18 09:40:12;;;;;;;0.80;0.80;;;;;;;21.42;62.87;96145.37;4373929;32;20226;-54
2022/05/18 09:42:42;;;;;;;0.70;0.70;;;;;;;21.54;59.79;96149.97;4377520;32;20241;-52
2022/05/18 09:45:14;;;;;;;1.07;1.07;;;;;;;21.63;59.56;96137.09;4378314;32;20250;-49
2022/05/18 09:47:54;;;;;;;2.23;1.60;;;;;;;21.58;59.59;96146.25;4385364;32;20263;-53
2022/05/18 09:50:20;;;;;;;0.47;0.47;;;;;;;21.58;60.75;96148.94;4387644;32;20198;-53
2022/05/18 09:52:47;;;;;;;1.03;1.03;;;;;;;21.68;58.26;96150.34;4378678;32;20188;-49
2022/05/18 09:55:17;;;;;;;2.67;1.40;;;;;;;21.73;55.47;96144.72;4378038;32;20180;-52
2022/05/18 09:58:08;;;;;;;0.73;0.73;;;;;;;21.78;59.09;96149.88;4392551;32;20212;-50
2022/05/18 10:00:36;;;;;;;0.40;0.40;;;;;;;21.80;54.98;96142.22;4383692;32;20177;-49
2022/05/18 10:08:54;;;;;;;0.50;0.50;;;;;;;21.76;60.11;96141.31;4392081;32;21324;-49
2022/05/18 10:11:23;;;;;;;0.60;0.60;;;;;;;21.87;54.45;96150.50;4372345;32;20289;-50
2022/05/18 10:14:10;;;;;;;4.33;1.13;;;;;;;21.92;54.55;96144.06;4378696;32;20177;-50
2022/05/18 10:16:41;;;;;;;0.73;0.73;;;;;;;22.08;51.76;96147.59;4390528;32;20259;-49
2022/05/18 10:19:16;;;;;;;0.57;0.57;;;;;;;22.12;53.37;96142.28;4376872;32;20567;-48
2022/05/18 10:21:51;;;;;;;1.10;1.10;;;;;;;21.87;53.50;96142.38;4377422;32;20165;-51
2022/05/18 10:24:30;;;;;;;1.33;1.23;;;;;;;22.18;52.54;96144.41;4378347;32;20234;-52
2022/05/18 10:27:10;;;;;;;0.70;0.70;;;;;;;22.29;48.70;96134.63;4391823;32;20199;-50
2022/05/18 10:29:35;;;;;;;0.50;0.50;;;;;;;22.53;47.14;96132.88;4364625;32;20309;-53
2022/05/18 10:32:07;;;;;;;0.30;0.30;;;;;;;22.52;47.45;96134.03;4383529;32;20181;-51
2022/05/18 10:34:42;;;;;;;0.40;0.40;;;;;;;22.64;47.35;96136.66;4365567;32;20188;-51
2022/05/18 10:37:11;;;;;;;0.30;0.30;;;;;;;22.47;48.37;96140.47;4376806;32;20196;-53
2022/05/18 10:39:39;;;;;;;1.53;1.43;;;;;;;22.45;49.38;96133.84;4392312;32;20224;-53
2022/05/18 10:42:15;;;;;;;0.73;0.73;;;;;;;22.53;47.67;96130.97;4381190;32;20189;-53
2022/05/18 10:44:43;;;;;;;0.20;0.20;;;;;;;22.43;49.48;96136.91;4376820;32;20191;-51
2022/05/18 10:47:18;;;;;;;0.40;0.40;;;;;;;22.67;46.53;96137.84;4377607;32;20184;-51
2022/05/18 10:49:45;;;;;;;1.80;1.70;;;;;;;22.57;45.18;96136.47;4387980;32;20235;-53
2022/05/18 10:52:19;;;;;;;0.60;0.60;;;;;;;22.59;46.30;96139.63;4391971;32;20180;-53
2022/05/18 10:54:56;;;;;;;0.70;0.70;;;;;;;22.60;47.47;96131.16;4389936;32;20192;-52
2022/05/18 10:57:32;;;;;;;3.27;0.63;;;;;;;22.34;49.75;96132.81;4375070;32;20184;-52
2022/05/18 11:00:00;;;;;;;1.00;1.00;;;;;;;22.56;50.87;96127.56;4377286;32;20187;-53
2022/05/18 11:02:50;;;;;;;0.83;0.83;;;;;;;22.47;51.88;96124.25;4391482;32;20229;-53
2022/05/18 11:05:15;;;;;;;1.90;0.70;;;;;;;22.40;52.73;96126.78;4370815;32;20180;-52
2022/05/18 11:07:41;;;;;;;6.70;0.70;;;;;;;22.52;53.68;96125.91;4384003;32;20222;-52
2022/05/18 11:10:07;;;;;;;0.93;0.93;;;;;;;22.58;54.45;96121.81;4375867;32;20240;-50
2022/05/18 11:12:50;;;;;;;1.40;1.07;;;;;;;22.50;55.25;96120.84;4373731;32;20195;-52
2022/05/18 11:15:31;;;;;;;0.77;0.77;;;;;;;22.42;56.13;96118.34;4364240;32;20207;-51
2022/05/18 11:18:29;;;;;;;1.13;1.03;;;;;;;22.35;56.47;96116.22;4376310;32;20172;-53
2022/05/18 11:21:15;;;;;;;0.93;0.93;;;;;;;22.26;57.24;96115.59;4378261;32;20260;-52
2022/05/18 11:23:59;;;;;;;1.20;1.07;;;;;;;22.32;56.09;96119.63;4375058;32;20181;-54
2022/05/18 11:26:37;;;;;;;0.70;0.70;;;;;;;22.43;56.17;96109.09;4390621;32;20282;-55
2022/05/18 11:29:27;;;;;;;0.87;0.87;;;;;;;22.56;56.79;96115.97;4401133;32;20192;-53
2022/05/18 11:32:21;;;;;;;1.43;1.37;;;;;;;22.51;57.14;96110.81;4379537;32;20186;-55
2022/05/18 11:34:52;;;;;;;1.20;0.77;;;;;;;22.44;57.21;96108.75;4382527;32;20193;-56
2022/05/18 11:37:17;;;;;;;0.93;0.93;;;;;;;22.49;56.65;96105.75;4377166;32;20216;-53
2022/05/18 11:40:00;;;;;;;0.77;0.77;;;;;;;22.52;57.20;96107.75;4373152;32;20231;-51
2022/05/18 11:42:59;;;;;;;0.70;0.70;;;;;;;22.65;57.27;96111.16;4371873;32;20196;-52
2022/05/18 11:45:47;;;;;;;1.37;1.37;;;;;;;22.52;57.51;96110.47;4378743;32;23558;-52
2022/05/18 11:48:36;;;;;;;1.03;1.03;;;;;;;22.55;57.45;96103.56;4389146;32;20180;-49
2022/05/18 11:51:25;;;;;;;1.17;1.17;;;;;;;22.62;57.83;96095.62;4377005;32;20264;-51
2022/05/18 11:54:01;;;;;;;0.80;0.80;;;;;;;22.85;56.97;96091.16;4376533;32;20180;-52
2022/05/18 11:56:48;;;;;;;2.23;2.10;;;;;;;22.72;57.63;96094.28;4373965;32;20202;-52
2022/05/18 11:59:45;;;;;;;1.50;1.50;;;;;;;22.81;57.40;96086.81;4390508;32;20265;-51
2022/05/18 12:02:29;;;;;;;1.27;1.27;;;;;;;22.83;57.05;96095.38;4376345;32;20236;-53